Time;durP1;ratioP1;P1;durP2;ratioP2;P2;SDS_P1;SDS_P2;PMS_P1;PMS_P2;Temp;Humidity;BMP_temperature;BMP_pressure;BME280_temperature;BME280_humidity;BME280_pressure;Samples;Min_cycle;Max_cycle;Signal;HPM_P1;HPM_P2
2023/10/12 00:02:00;;;;;;;6.32;1.70;;;9.30;99.90;;;;;;5055073;28;20032;-50
2023/10/12 00:04:38;;;;;;;6.15;1.40;;;9.30;99.90;;;;;;5054921;28;20039;-50
2023/10/12 00:07:33;;;;;;;7.72;1.55;;;9.30;99.90;;;;;;5053828;28;20127;-51
2023/10/12 00:10:00;;;;;;;5.78;1.15;;;9.30;99.90;;;;;;5054813;28;20132;-48
2023/10/12 00:12:26;;;;;;;7.30;1.90;;;9.30;99.90;;;;;;5054593;28;20056;-48
2023/10/12 00:14:55;;;;;;;10.48;1.50;;;9.30;99.90;;;;;;5053675;28;20025;-51
2023/10/12 00:17:23;;;;;;;5.72;1.20;;;9.30;99.90;;;;;;5053564;28;20063;-50
2023/10/12 00:19:51;;;;;;;4.13;1.33;;;9.30;99.90;;;;;;5054791;28;20025;-51
2023/10/12 00:22:17;;;;;;;4.85;1.58;;;9.30;99.90;;;;;;5054638;28;20136;-51
2023/10/12 00:24:43;;;;;;;4.03;1.25;;;9.20;99.90;;;;;;5054530;28;20406;-51
2023/10/12 00:27:09;;;;;;;6.45;1.20;;;9.20;99.90;;;;;;5054761;28;20033;-48
2023/10/12 00:29:39;;;;;;;4.63;1.33;;;9.20;99.90;;;;;;5053706;28;20419;-47
2023/10/12 00:32:08;;;;;;;8.13;1.50;;;9.30;99.90;;;;;;5054662;28;20477;-48
2023/10/12 00:34:38;;;;;;;6.73;1.50;;;9.30;99.90;;;;;;5054861;28;20421;-48
2023/10/12 00:37:06;;;;;;;8.27;1.58;;;9.30;99.90;;;;;;5054509;28;20028;-48
2023/10/12 00:39:58;;;;;;;6.35;1.35;;;9.30;99.90;;;;;;5053539;28;20025;-50
2023/10/12 00:42:34;;;;;;;6.28;1.25;;;9.30;99.90;;;;;;5053396;28;20051;-48
2023/10/12 00:45:11;;;;;;;5.00;1.55;;;9.30;99.90;;;;;;5053804;28;20045;-47
2023/10/12 00:47:44;;;;;;;7.13;2.13;;;9.30;99.90;;;;;;5053601;28;20022;-48
2023/10/12 00:50:14;;;;;;;3.75;1.13;;;9.30;99.90;;;;;;5054591;28;20028;-48
2023/10/12 00:52:58;;;;;;;7.60;1.35;;;9.30;99.90;;;;;;5054388;28;20083;-51
2023/10/12 00:55:36;;;;;;;4.82;1.20;;;9.30;99.90;;;;;;5054158;28;20025;-50
2023/10/12 00:58:05;;;;;;;5.13;1.33;;;9.30;99.90;;;;;;5057123;28;20033;-51
2023/10/12 01:00:35;;;;;;;7.75;1.20;;;9.30;99.90;;;;;;5056999;28;20366;-50
2023/10/12 01:03:07;;;;;;;;;;;9.30;99.90;;;;;;5058745;28;20145;-52
2023/10/12 01:05:36;;;;;;;6.15;1.48;;;9.40;99.90;;;;;;5057964;28;19917;-51
2023/10/12 01:08:05;;;;;;;5.20;1.10;;;9.30;99.90;;;;;;5058252;28;20052;-51
2023/10/12 01:10:32;;;;;;;5.43;1.23;;;9.40;99.90;;;;;;5058297;28;20056;-48
2023/10/12 01:13:00;;;;;;;8.25;1.40;;;9.40;99.90;;;;;;5057994;28;20029;-51
2023/10/12 01:15:29;;;;;;;7.68;1.17;;;9.40;99.90;;;;;;5058065;28;20030;-49
2023/10/12 01:17:56;;;;;;;6.22;1.40;;;9.40;99.90;;;;;;5058004;28;20025;-49
2023/10/12 01:20:36;;;;;;;10.77;1.75;;;9.40;99.90;;;;;;5057905;28;20457;-47
2023/10/12 01:23:03;;;;;;;4.95;1.13;;;9.40;99.90;;;;;;5056960;28;20068;-46
2023/10/12 01:25:29;;;;;;;4.13;1.00;;;9.40;99.90;;;;;;5057998;28;20509;-46
2023/10/12 01:27:55;;;;;;;4.93;1.02;;;9.40;99.90;;;;;;5057872;28;20473;-46
2023/10/12 01:30:27;;;;;;;6.90;1.27;;;9.40;99.90;;;;;;5057703;28;20041;-47
2023/10/12 01:32:58;;;;;;;4.35;1.00;;;9.40;99.90;;;;;;5057707;28;20389;-46
2023/10/12 01:35:33;;;;;;;6.88;1.40;;;9.50;99.90;;;;;;5057711;28;20060;-47
2023/10/12 01:38:05;;;;;;;4.00;1.33;;;9.50;99.90;;;;;;5056609;28;20021;-47
2023/10/12 01:43:12;;;;;;;5.57;1.20;;;9.60;99.90;;;;;;5056455;28;20120;-46
2023/10/12 01:45:41;;;;;;;6.43;1.30;;;9.50;99.90;;;;;;5057570;28;20366;-46
2023/10/12 01:48:16;;;;;;;2.75;1.40;;;9.60;99.90;;;;;;5056344;28;20056;-50
2023/10/12 01:50:43;;;;;;;8.77;1.30;;;9.60;99.90;;;;;;5057187;28;20040;-50
2023/10/12 01:55:51;;;;;;;3.63;0.90;;;9.70;99.90;;;;;;5057512;28;20025;-50
2023/10/12 01:58:18;;;;;;;3.10;0.98;;;9.70;99.90;;;;;;5056105;28;20075;-52
2023/10/12 02:00:51;;;;;;;6.43;1.20;;;9.70;99.90;;;;;;5055913;28;20029;-48
2023/10/12 02:06:05;;;;;;;5.50;1.25;;;9.70;99.90;;;;;;5056810;28;20111;-49
2023/10/12 02:08:32;;;;;;;5.05;1.20;;;9.70;99.90;;;;;;5056162;28;20377;-49
2023/10/12 02:11:45;;;;;;;6.15;1.55;;;9.80;99.90;;;;;;5056880;28;20040;-48
2023/10/12 02:13:51;;;;;;;4.43;1.08;;;9.80;99.90;;;;;;5058710;28;20438;-48
2023/10/12 02:16:26;;;;;;;2.78;1.00;;;9.80;99.90;;;;;;5056547;28;20119;-48
2023/10/12 02:18:54;;;;;;;6.32;1.10;;;9.80;99.90;;;;;;5056651;28;20458;-48
2023/10/12 02:21:21;;;;;;;7.22;1.30;;;9.80;99.90;;;;;;5039357;28;20087;-48
2023/10/12 02:26:41;;;;;;;3.42;1.05;;;9.80;99.90;;;;;;5039828;28;20029;-47
2023/10/12 02:31:38;;;;;;;6.57;1.25;;;9.90;99.90;;;;;;5056180;28;20474;-46
2023/10/12 02:34:14;;;;;;;4.13;1.25;;;9.70;99.90;;;;;;5056727;28;20079;-47
2023/10/12 02:36:40;;;;;;;7.43;1.20;;;9.70;99.90;;;;;;5055212;28;20052;-49
2023/10/12 02:39:15;;;;;;;3.78;1.00;;;9.80;99.90;;;;;;5056303;28;20351;-50
2023/10/12 02:41:48;;;;;;;6.78;1.20;;;9.80;99.90;;;;;;5056591;28;20033;-47
2023/10/12 02:44:18;;;;;;;4.50;1.30;;;9.80;99.90;;;;;;5056181;28;20032;-50
2023/10/12 02:47:04;;;;;;;6.30;1.08;;;9.80;99.90;;;;;;5056452;28;20033;-49
2023/10/12 02:49:35;;;;;;;6.05;1.10;;;9.90;99.90;;;;;;5056327;28;20438;-50
2023/10/12 02:52:06;;;;;;;4.85;1.00;;;9.90;99.90;;;;;;5056192;28;20044;-50
2023/10/12 02:54:38;;;;;;;6.95;1.33;;;9.90;99.90;;;;;;5056292;28;20449;-48
2023/10/12 02:57:05;;;;;;;7.75;1.17;;;9.90;99.90;;;;;;5056105;28;20029;-50
2023/10/12 02:59:36;;;;;;;6.97;1.20;;;9.90;99.90;;;;;;5056087;28;20458;-49
2023/10/12 03:02:18;;;;;;;6.97;1.45;;;9.70;99.90;;;;;;5056314;28;20346;-50
2023/10/12 03:04:45;;;;;;;6.72;1.63;;;9.60;99.90;;;;;;5055920;28;20036;-50
2023/10/12 03:07:16;;;;;;;4.95;1.75;;;9.60;99.90;;;;;;5055702;28;20056;-50
2023/10/12 03:09:43;;;;;;;7.00;1.20;;;9.80;99.90;;;;;;5056035;28;20354;-50
2023/10/12 03:12:10;;;;;;;8.30;1.40;;;9.90;99.90;;;;;;5055811;28;20108;-47
2023/10/12 03:14:40;;;;;;;6.07;1.33;;;9.90;99.90;;;;;;5055735;28;20056;-46
2023/10/12 03:17:09;;;;;;;4.68;1.20;;;10.00;99.90;;;;;;5055295;28;20104;-47
2023/10/12 03:19:46;;;;;;;5.55;1.30;;;10.00;99.90;;;;;;5054766;28;20033;-50
2023/10/12 03:25:05;;;;;;;6.93;1.40;;;10.00;99.90;;;;;;5055441;28;20056;-50
2023/10/12 03:27:33;;;;;;;6.88;1.17;;;10.00;99.90;;;;;;5055622;28;20028;-50
2023/10/12 03:30:09;;;;;;;6.63;1.50;;;10.00;99.90;;;;;;5054413;28;20047;-49
2023/10/12 03:32:36;;;;;;;5.72;1.30;;;10.00;99.90;;;;;;5055152;28;20538;-48
2023/10/12 03:35:04;;;;;;;5.50;1.60;;;10.00;99.90;;;;;;5055243;28;20029;-48
2023/10/12 03:37:45;;;;;;;7.70;1.10;;;10.10;99.90;;;;;;5054354;28;20044;-47
2023/10/12 03:42:55;;;;;;;6.90;2.03;;;10.00;99.90;;;;;;5056056;28;20083;-47
2023/10/12 03:45:38;;;;;;;7.95;1.13;;;10.00;99.90;;;;;;5055622;28;20090;-47
2023/10/12 03:48:22;;;;;;;3.90;0.95;;;10.00;99.90;;;;;;5055057;28;20059;-47
2023/10/12 03:53:36;;;;;;;4.13;1.30;;;10.00;99.90;;;;;;5055186;28;20472;-47
2023/10/12 03:56:07;;;;;;;7.20;1.10;;;10.10;99.90;;;;;;5055257;28;20345;-48
2023/10/12 03:58:41;;;;;;;6.47;1.25;;;10.10;99.90;;;;;;5055227;28;20033;-48
2023/10/12 04:03:58;;;;;;;9.27;1.45;;;10.10;99.90;;;;;;5055278;28;20077;-47
2023/10/12 04:06:24;;;;;;;7.00;1.30;;;10.10;99.90;;;;;;5054990;28;20136;-47
2023/10/12 04:08:54;;;;;;;8.05;1.27;;;10.10;99.90;;;;;;5055026;28;20116;-47
2023/10/12 04:17:22;;;;;;;7.47;1.30;;;10.00;99.90;;;;;;5064759;28;20056;-47
2023/10/12 04:25:32;;;;;;;4.47;1.05;;;9.90;99.90;;;;;;5039193;28;20049;-50
2023/10/12 04:33:24;;;;;;;10.05;1.70;;;9.80;99.90;;;;;;5058483;28;20374;-49
2023/10/12 04:43:52;;;;;;;8.27;1.77;;;9.80;99.90;;;;;;5058058;28;20079;-50
2023/10/12 04:48:51;;;;;;;5.88;1.38;;;9.70;99.90;;;;;;5058436;28;20049;-48
2023/10/12 04:51:21;;;;;;;5.55;1.30;;;9.70;99.90;;;;;;5058125;28;20067;-50
2023/10/12 04:56:49;;;;;;;7.15;1.20;;;9.70;99.90;;;;;;5065307;28;20033;-51
2023/10/12 04:59:17;;;;;;;5.70;1.30;;;9.70;99.90;;;;;;5057477;28;20025;-52
2023/10/12 05:09:49;;;;;;;4.18;1.40;;;9.60;99.90;;;;;;5057901;28;20041;-49
2023/10/12 05:12:18;;;;;;;5.70;1.30;;;9.60;99.90;;;;;;5057988;28;20095;-49
2023/10/12 05:14:44;;;;;;;6.18;1.40;;;9.60;99.90;;;;;;5057920;28;20033;-50
2023/10/12 05:17:10;;;;;;;4.65;2.05;;;9.60;99.90;;;;;;5057904;28;20033;-50
2023/10/12 05:19:35;;;;;;;7.20;2.08;;;9.60;99.90;;;;;;5056953;28;20465;-49
2023/10/12 05:22:01;;;;;;;8.25;1.38;;;9.50;99.90;;;;;;5057890;28;20107;-50
2023/10/12 05:24:27;;;;;;;4.03;1.10;;;9.40;99.90;;;;;;5056926;28;20024;-49
2023/10/12 05:27:23;;;;;;;5.15;1.52;;;9.40;99.90;;;;;;5057762;28;20029;-50
2023/10/12 05:29:52;;;;;;;5.40;2.05;;;9.30;99.90;;;;;;5057810;28;20457;-48
2023/10/12 05:32:18;;;;;;;5.28;1.33;;;9.30;99.90;;;;;;5057423;28;20037;-50
2023/10/12 05:34:45;;;;;;;3.95;2.05;;;9.20;99.90;;;;;;5056462;28;20025;-50
2023/10/12 05:39:51;;;;;;;11.20;1.52;;;9.20;99.90;;;;;;5056680;28;20353;-50
2023/10/12 05:42:20;;;;;;;4.40;1.33;;;9.20;99.90;;;;;;5056491;28;20033;-49
2023/10/12 05:44:49;;;;;;;8.07;2.35;;;9.20;99.90;;;;;;5057764;28;20353;-50
2023/10/12 05:47:17;;;;;;;3.90;1.17;;;9.20;99.90;;;;;;5057434;28;20029;-50
2023/10/12 05:49:45;;;;;;;4.50;1.40;;;9.20;99.90;;;;;;5057530;28;20041;-50
2023/10/12 05:52:11;;;;;;;7.25;1.17;;;9.20;99.90;;;;;;5057409;28;20179;-49
2023/10/12 05:54:40;;;;;;;5.03;1.30;;;9.10;99.90;;;;;;5056754;28;20029;-50
2023/10/12 05:57:17;;;;;;;5.70;1.33;;;9.10;99.90;;;;;;5057319;28;20036;-50
2023/10/12 05:59:43;;;;;;;17.05;8.68;;;9.10;99.90;;;;;;5057458;28;20464;-49
2023/10/12 06:02:10;;;;;;;6.55;1.60;;;9.20;99.90;;;;;;5055995;28;20450;-50
2023/10/12 06:04:36;;;;;;;9.98;1.90;;;9.10;99.90;;;;;;5057107;28;20037;-49
2023/10/12 06:07:03;;;;;;;10.75;4.43;;;9.10;99.90;;;;;;5056838;28;20049;-50
2023/10/12 06:09:37;;;;;;;6.80;1.88;;;9.10;99.90;;;;;;5056636;28;20033;-50
2023/10/12 06:12:07;;;;;;;5.38;1.88;;;9.10;99.90;;;;;;5056206;28;20354;-50
2023/10/12 06:14:34;;;;;;;4.95;1.63;;;9.10;99.90;;;;;;5056000;28;20036;-50
2023/10/12 06:17:02;;;;;;;6.72;1.67;;;9.00;99.90;;;;;;5056759;28;20104;-50
2023/10/12 06:19:34;;;;;;;9.25;1.50;;;9.00;99.90;;;;;;5055895;28;20025;-50
2023/10/12 06:22:00;;;;;;;4.35;1.65;;;8.90;99.90;;;;;;5056807;28;20025;-49
2023/10/12 06:24:33;;;;;;;5.93;2.10;;;8.90;99.90;;;;;;5056509;28;20036;-49
2023/10/12 06:27:02;;;;;;;8.23;1.67;;;8.90;99.90;;;;;;5056490;28;20361;-47
2023/10/12 06:29:28;;;;;;;7.67;2.10;;;8.80;99.90;;;;;;5056673;28;20077;-49
2023/10/12 06:31:54;;;;;;;5.45;1.63;;;8.80;99.90;;;;;;5056503;28;20278;-48
2023/10/12 06:34:22;;;;;;;10.00;2.53;;;8.80;99.90;;;;;;5056363;28;20103;-49
2023/10/12 06:36:48;;;;;;;10.73;2.30;;;8.80;99.90;;;;;;5038694;28;20055;-50
2023/10/12 06:44:26;;;;;;;6.35;2.13;;;8.70;99.90;;;;;;5055384;28;20030;-49
2023/10/12 06:46:57;;;;;;;8.15;1.88;;;8.70;99.90;;;;;;5054922;28;20040;-47
2023/10/12 06:49:29;;;;;;;5.72;1.90;;;8.70;99.90;;;;;;5056247;28;20025;-49
2023/10/12 06:52:04;;;;;;;9.38;1.77;;;8.70;99.90;;;;;;5055057;28;20029;-49
2023/10/12 06:54:33;;;;;;;8.55;2.10;;;8.70;99.90;;;;;;5039282;28;20062;-49
2023/10/12 06:59:52;;;;;;;4.68;1.60;;;8.60;99.90;;;;;;5055617;28;20052;-50
2023/10/12 07:02:24;;;;;;;8.38;1.52;;;8.60;99.90;;;;;;5055503;28;20032;-49
2023/10/12 07:05:08;;;;;;;3.95;1.40;;;8.70;99.90;;;;;;5054686;28;20033;-49
2023/10/12 07:07:40;;;;;;;6.88;2.50;;;8.70;99.90;;;;;;5055847;28;20143;-49
2023/10/12 07:10:20;;;;;;;9.55;2.10;;;8.70;99.90;;;;;;5055728;28;20451;-47
2023/10/12 07:12:48;;;;;;;;;;;8.60;99.90;;;;;;5054857;28;20036;-47
2023/10/12 07:15:23;;;;;;;5.95;1.85;;;8.60;99.90;;;;;;5055504;28;19923;-49
2023/10/12 07:17:53;;;;;;;5.35;1.83;;;8.70;99.90;;;;;;5055568;28;20025;-47
2023/10/12 07:20:25;;;;;;;4.95;1.50;;;9.00;99.90;;;;;;5054265;28;20044;-46
2023/10/12 07:22:51;;;;;;;5.97;1.60;;;9.50;99.90;;;;;;5055326;28;20041;-47
2023/10/12 07:25:22;;;;;;;4.65;1.38;;;9.90;99.90;;;;;;5055458;28;20068;-50
2023/10/12 07:27:58;;;;;;;6.88;1.55;;;10.40;99.90;;;;;;5055592;28;20033;-49
2023/10/12 07:30:33;;;;;;;5.85;1.70;;;10.90;99.90;;;;;;5055136;28;20057;-49
2023/10/12 07:33:04;;;;;;;6.90;1.75;;;11.30;99.90;;;;;;5055384;28;20361;-46
2023/10/12 07:35:34;;;;;;;9.32;1.50;;;11.60;99.90;;;;;;5055277;28;20120;-46
2023/10/12 07:38:47;;;;;;;7.38;2.05;;;12.00;99.90;;;;;;5055152;28;20033;-50
2023/10/12 07:43:20;;;;;;;8.82;5.00;;;12.70;99.90;;;;;;5054865;28;20029;-49
2023/10/12 07:45:49;;;;;;;7.07;4.30;;;13.00;99.90;;;;;;5053490;28;20492;-48
2023/10/12 07:48:39;;;;;;;7.70;4.55;;;13.40;99.90;;;;;;5037302;28;20048;-47
2023/10/12 07:53:51;;;;;;;7.93;3.47;;;14.30;99.90;;;;;;5053627;28;20037;-50
2023/10/12 07:56:17;;;;;;;8.48;5.32;;;14.30;99.90;;;;;;5054357;28;20029;-50
2023/10/12 07:58:51;;;;;;;18.45;8.93;;;14.70;99.90;;;;;;5053469;28;20063;-50
2023/10/12 08:03:51;;;;;;;4.50;1.73;;;15.40;99.90;;;;;;5054069;28;20300;-51
2023/10/12 08:06:31;;;;;;;3.65;1.55;;;15.60;99.90;;;;;;5053972;28;20128;-48
2023/10/12 08:09:04;;;;;;;;;;;15.80;99.90;;;;;;5055165;28;20125;-51
2023/10/12 08:11:31;;;;;;;3.58;1.80;;;15.90;99.90;;;;;;5054663;28;19913;-51
2023/10/12 08:14:18;;;;;;;7.03;1.65;;;15.90;99.90;;;;;;5054527;28;20406;-52
2023/10/12 08:17:00;;;;;;;7.03;2.03;;;16.50;99.90;;;;;;5054863;28;20029;-48
2023/10/12 08:19:29;;;;;;;5.82;2.05;;;16.90;99.90;;;;;;5054612;28;20037;-51
2023/10/12 08:21:58;;;;;;;5.35;1.65;;;17.20;99.90;;;;;;5054345;28;20375;-50
2023/10/12 08:24:24;;;;;;;6.93;1.70;;;17.80;99.90;;;;;;5054309;28;20032;-49
2023/10/12 08:26:57;;;;;;;5.15;1.58;;;17.90;99.90;;;;;;5036643;28;20037;-51
2023/10/12 08:30:11;;;;;;;4.35;1.60;;;18.00;99.90;;;;;;5054641;28;20366;-49
2023/10/12 08:39:37;;;;;;;9.25;2.42;;;19.30;98.20;;;;;;5054414;28;20351;-51
2023/10/12 08:42:30;;;;;;;9.48;1.70;;;19.70;97.30;;;;;;5054494;28;20029;-52
2023/10/12 08:44:58;;;;;;;8.57;2.85;;;20.10;94.80;;;;;;5054002;28;20026;-52
2023/10/12 08:50:08;;;;;;;8.02;1.77;;;20.60;92.10;;;;;;5053726;28;20025;-51
2023/10/12 08:52:36;;;;;;;10.60;2.08;;;20.80;87.50;;;;;;5053815;28;20037;-50
2023/10/12 08:55:11;;;;;;;5.88;1.80;;;20.70;88.40;;;;;;5053097;28;20037;-51
2023/10/12 08:58:15;;;;;;;6.45;1.70;;;20.90;85.90;;;;;;5053197;28;20069;-52
2023/10/12 09:00:55;;;;;;;6.35;2.17;;;21.00;82.20;;;;;;5053956;28;20103;-52
2023/10/12 09:05:51;;;;;;;7.25;1.63;;;20.80;76.70;;;;;;5052712;28;20080;-51
2023/10/12 09:11:13;;;;;;;6.32;1.50;;;20.50;79.20;;;;;;5053729;28;20029;-51
2023/10/12 09:13:45;;;;;;;8.05;1.80;;;20.60;80.40;;;;;;5054066;28;20037;-52
2023/10/12 09:16:11;;;;;;;7.05;1.60;;;20.40;77.10;;;;;;5053864;28;20114;-51
2023/10/12 09:18:47;;;;;;;7.82;1.70;;;19.00;80.20;;;;;;5056384;28;20106;-52
2023/10/12 09:21:23;;;;;;;13.02;2.25;;;18.70;87.20;;;;;;5056635;28;20025;-52
2023/10/12 09:24:05;;;;;;;4.25;1.70;;;19.30;82.20;;;;;;5056455;28;20037;-52
2023/10/12 09:26:34;;;;;;;12.45;2.67;;;19.30;83.00;;;;;;5056877;28;20053;-51
2023/10/12 09:36:43;;;;;;;6.70;1.80;;;20.40;70.70;;;;;;5057210;28;20041;-51
2023/10/12 09:39:15;;;;;;;13.02;2.55;;;20.20;73.10;;;;;;5056293;28;20473;-51
2023/10/12 09:41:42;;;;;;;4.57;1.20;;;20.90;68.70;;;;;;5057215;28;20025;-53
2023/10/12 09:44:11;;;;;;;6.35;1.75;;;21.40;65.60;;;;;;5056252;28;20021;-52
2023/10/12 09:46:37;;;;;;;10.05;1.85;;;21.10;68.00;;;;;;5056794;28;20107;-52
2023/10/12 09:49:06;;;;;;;6.47;1.50;;;21.40;67.80;;;;;;5022944;28;20067;-52
2023/10/12 09:51:45;;;;;;;4.87;1.67;;;21.40;63.70;;;;;;5039916;28;20025;-51
2023/10/12 09:54:21;;;;;;;7.68;1.85;;;21.10;65.90;;;;;;5057009;28;20056;-53
2023/10/12 09:56:47;;;;;;;6.50;2.13;;;20.90;60.90;;;;;;5055928;28;20469;-53
2023/10/12 09:59:19;;;;;;;7.93;1.73;;;21.20;59.40;;;;;;5055735;28;20408;-52
2023/10/12 10:07:17;;;;;;;7.05;1.92;;;21.80;57.80;;;;;;5055325;28;20395;-53
2023/10/12 10:09:59;;;;;;;4.53;1.52;;;22.30;48.60;;;;;;5041487;28;20061;-53
2023/10/12 10:12:27;;;;;;;9.13;1.67;;;23.10;47.50;;;;;;5055347;28;20036;-53
2023/10/12 10:14:59;;;;;;;10.88;2.08;;;23.60;41.50;;;;;;5056287;28;20079;-53
2023/10/12 10:17:35;;;;;;;5.75;1.60;;;23.30;41.40;;;;;;5056496;28;20033;-52
2023/10/12 10:20:46;;;;;;;8.88;1.90;;;23.00;43.80;;;;;;5055829;28;20478;-53
2023/10/12 10:22:59;;;;;;;6.35;1.88;;;23.40;41.00;;;;;;5056331;28;20112;-50
2023/10/12 10:25:33;;;;;;;8.52;2.22;;;22.70;43.80;;;;;;5056441;28;20029;-49
2023/10/12 10:28:06;;;;;;;6.75;1.85;;;23.00;42.70;;;;;;5039028;28;20033;-50
2023/10/12 10:30:40;;;;;;;5.90;2.20;;;23.50;39.80;;;;;;5056167;28;20405;-50
2023/10/12 10:33:13;;;;;;;5.28;1.88;;;24.20;37.70;;;;;;5039933;28;20037;-50
2023/10/12 10:36:01;;;;;;;8.13;2.03;;;24.50;34.60;;;;;;5056255;28;20033;-52
2023/10/12 10:38:34;;;;;;;8.25;2.00;;;25.00;33.50;;;;;;5055824;28;20432;-50
2023/10/12 10:41:17;;;;;;;10.50;2.05;;;23.90;34.70;;;;;;5055989;28;20033;-51
2023/10/12 10:43:44;;;;;;;9.25;2.85;;;23.80;35.60;;;;;;5054969;28;20112;-52
2023/10/12 10:46:10;;;;;;;8.90;2.28;;;23.50;34.80;;;;;;5054869;28;20049;-50
2023/10/12 10:48:39;;;;;;;9.10;2.28;;;23.80;34.40;;;;;;5055771;28;20033;-51
2023/10/12 10:51:11;;;;;;;10.73;2.08;;;23.90;32.70;;;;;;5055675;28;20068;-52
2023/10/12 10:53:41;;;;;;;7.57;1.50;;;23.50;33.60;;;;;;5055078;28;20056;-50
2023/10/12 10:56:12;;;;;;;6.63;1.58;;;23.70;31.80;;;;;;5054697;28;20115;-51
2023/10/12 10:58:39;;;;;;;5.20;1.60;;;24.00;32.30;;;;;;5055709;28;20435;-50
2023/10/12 11:01:09;;;;;;;6.30;1.83;;;23.40;33.20;;;;;;5055632;28;20443;-50
2023/10/12 11:03:34;;;;;;;;;;;24.20;33.00;;;;;;5056271;28;20032;-50
2023/10/12 11:06:00;;;;;;;8.35;1.60;;;25.30;27.40;;;;;;5054106;28;20273;-53
2023/10/12 11:08:31;;;;;;;6.93;2.17;;;25.80;27.50;;;;;;5055376;28;20029;-53
2023/10/12 11:13:38;;;;;;;6.82;2.10;;;25.50;27.50;;;;;;5054457;28;20087;-53
2023/10/12 11:16:54;;;;;;;4.65;1.48;;;25.60;27.30;;;;;;5055560;28;20049;-52
2023/10/12 11:18:52;;;;;;;6.00;1.85;;;24.90;27.40;;;;;;5053826;28;20120;-52
2023/10/12 11:21:20;;;;;;;10.77;4.90;;;25.00;28.00;;;;;;5053801;28;20025;-53
2023/10/12 11:23:46;;;;;;;4.68;1.63;;;25.50;26.60;;;;;;5053923;28;20029;-53
2023/10/12 11:26:17;;;;;;;6.32;1.83;;;25.20;26.30;;;;;;5054175;28;20502;-53
2023/10/12 11:28:44;;;;;;;7.80;2.13;;;25.40;26.40;;;;;;5055003;28;20029;-52
2023/10/12 11:31:30;;;;;;;7.78;2.03;;;25.20;25.30;;;;;;5053985;28;20428;-52
2023/10/12 11:33:56;;;;;;;6.65;1.52;;;24.50;26.40;;;;;;5055048;28;20045;-50
2023/10/12 11:36:25;;;;;;;6.53;2.53;;;23.90;27.40;;;;;;5054881;28;20033;-52
2023/10/12 11:38:59;;;;;;;6.60;2.13;;;23.60;27.70;;;;;;5054658;28;20033;-53
2023/10/12 11:41:25;;;;;;;6.57;2.05;;;24.10;29.40;;;;;;5054156;28;20033;-53
2023/10/12 11:43:54;;;;;;;6.50;1.60;;;25.20;27.10;;;;;;5054753;28;20029;-50
2023/10/12 11:46:23;;;;;;;11.00;2.17;;;25.90;24.60;;;;;;5053704;28;20347;-51
2023/10/12 11:49:02;;;;;;;7.57;2.17;;;26.60;22.80;;;;;;5054163;28;20466;-51
2023/10/12 11:51:28;;;;;;;7.85;2.30;;;27.10;23.20;;;;;;5054353;28;20339;-51
2023/10/12 11:53:54;;;;;;;7.43;1.90;;;27.80;21.90;;;;;;5053320;28;20095;-48
2023/10/12 11:56:22;;;;;;;12.68;2.25;;;27.10;21.70;;;;;;5053310;28;20029;-48
2023/10/12 11:58:54;;;;;;;5.40;2.10;;;26.40;21.90;;;;;;5053675;28;20067;-51
2023/10/12 12:01:27;;;;;;;6.90;2.13;;;26.10;23.10;;;;;;5054558;28;20025;-49
2023/10/12 12:03:54;;;;;;;8.48;1.50;;;25.70;22.90;;;;;;5054294;28;20065;-50
2023/10/12 12:06:21;;;;;;;6.75;2.38;;;25.60;22.80;;;;;;5053772;28;20045;-51
2023/10/12 12:08:51;;;;;;;4.78;2.17;;;26.20;22.60;;;;;;5054521;28;20032;-49
2023/10/12 12:11:19;;;;;;;;;;;26.00;23.00;;;;;;5054532;28;20095;-53
2023/10/12 12:13:48;;;;;;;6.15;1.70;;;25.60;22.70;;;;;;5054355;28;19924;-48
2023/10/12 12:16:23;;;;;;;9.82;2.20;;;25.00;26.10;;;;;;5053692;28;20032;-50
2023/10/12 12:18:53;;;;;;;4.30;1.48;;;25.90;22.80;;;;;;5054421;28;20366;-49
2023/10/12 12:21:34;;;;;;;6.88;1.95;;;26.00;22.60;;;;;;5054358;28;20159;-49
2023/10/12 12:24:14;;;;;;;11.13;1.85;;;25.60;22.60;;;;;;5053898;28;20033;-50
2023/10/12 12:26:44;;;;;;;7.75;1.98;;;25.40;22.40;;;;;;5054306;28;20115;-52
2023/10/12 12:29:11;;;;;;;6.82;1.90;;;25.20;24.00;;;;;;5054086;28;20423;-50
2023/10/12 12:31:37;;;;;;;6.25;2.30;;;25.50;23.50;;;;;;5053434;28;20033;-50
2023/10/12 12:34:06;;;;;;;8.93;1.60;;;25.50;23.70;;;;;;5054267;28;20029;-49
2023/10/12 12:36:32;;;;;;;6.20;1.73;;;25.80;22.40;;;;;;5053809;28;20040;-50
2023/10/12 12:39:00;;;;;;;6.68;1.90;;;26.20;21.00;;;;;;5054121;28;20108;-50
2023/10/12 12:41:26;;;;;;;5.03;1.52;;;26.50;20.90;;;;;;5054159;28;20017;-49
2023/10/12 12:43:52;;;;;;;6.38;1.70;;;26.60;20.60;;;;;;5053707;28;20029;-50
2023/10/12 12:46:18;;;;;;;7.40;2.10;;;26.20;21.60;;;;;;5052994;28;20041;-49
2023/10/12 12:48:45;;;;;;;5.50;1.80;;;26.80;20.80;;;;;;5052935;28;20060;-49
2023/10/12 12:51:17;;;;;;;5.20;1.55;;;27.30;20.90;;;;;;5054760;28;20036;-48
2023/10/12 12:53:46;;;;;;;5.78;1.58;;;27.00;19.70;;;;;;5056940;28;20319;-48
2023/10/12 12:56:19;;;;;;;6.88;2.00;;;26.40;23.10;;;;;;5056713;28;20488;-47
2023/10/12 12:58:48;;;;;;;5.43;1.88;;;26.10;22.00;;;;;;5056889;28;20025;-56
2023/10/12 13:01:23;;;;;;;;;;;25.90;22.10;;;;;;5058212;28;20025;-51
2023/10/12 13:03:51;;;;;;;8.68;2.40;;;25.20;22.40;;;;;;5057532;28;20007;-50
2023/10/12 13:06:17;;;;;;;6.47;2.47;;;25.30;22.30;;;;;;5057403;28;20049;-49
2023/10/12 13:08:43;;;;;;;7.80;2.00;;;25.10;22.70;;;;;;5056491;28;20335;-51
2023/10/12 13:11:09;;;;;;;7.03;1.77;;;24.80;24.10;;;;;;5057456;28;20529;-50
2023/10/12 13:13:35;;;;;;;5.85;1.50;;;24.10;25.60;;;;;;5056373;28;20038;-51
2023/10/12 13:16:03;;;;;;;7.70;2.08;;;23.70;27.70;;;;;;5057676;28;20033;-51
2023/10/12 13:18:33;;;;;;;5.97;1.42;;;23.60;27.50;;;;;;5056679;28;20112;-51
2023/10/12 13:20:59;;;;;;;6.47;1.60;;;23.00;28.30;;;;;;5057512;28;20107;-51
2023/10/12 13:23:25;;;;;;;5.35;1.45;;;21.50;30.80;;;;;;5057491;28;20115;-51
2023/10/12 13:25:51;;;;;;;6.35;1.95;;;20.70;36.30;;;;;;5057608;28;20041;-49
2023/10/12 13:28:16;;;;;;;6.43;1.70;;;20.00;39.10;;;;;;5057059;28;20098;-48
2023/10/12 13:30:43;;;;;;;9.85;1.90;;;19.30;47.00;;;;;;5057145;28;20033;-47
2023/10/12 13:33:11;;;;;;;10.02;2.38;;;19.10;45.90;;;;;;5039464;28;20068;-52
2023/10/12 13:38:09;;;;;;;7.95;1.58;;;18.80;53.40;;;;;;5039662;28;20025;-51
2023/10/12 13:40:38;;;;;;;5.70;1.58;;;18.90;52.50;;;;;;5056941;28;20327;-50
2023/10/12 13:43:14;;;;;;;5.30;2.38;;;18.80;50.80;;;;;;5056438;28;20119;-50
2023/10/12 13:45:50;;;;;;;5.75;1.58;;;18.90;53.00;;;;;;5057127;28;20036;-48
2023/10/12 13:48:24;;;;;;;7.10;2.28;;;19.80;49.50;;;;;;5055614;28;20120;-52
2023/10/12 13:50:59;;;;;;;5.05;1.60;;;19.70;49.30;;;;;;5056918;28;20029;-50
2023/10/12 13:53:28;;;;;;;5.80;1.60;;;19.90;47.70;;;;;;5056992;28;20060;-52
2023/10/12 13:55:54;;;;;;;5.20;1.67;;;20.00;50.80;;;;;;5056485;28;20166;-51
2023/10/12 13:58:24;;;;;;;4.90;1.50;;;20.20;48.50;;;;;;5039458;28;20297;-51
2023/10/12 14:00:54;;;;;;;5.72;1.50;;;20.70;47.10;;;;;;5056536;28;20104;-51
2023/10/12 14:03:28;;;;;;;4.25;1.27;;;20.10;48.60;;;;;;5055916;28;20061;-52
2023/10/12 14:06:06;;;;;;;4.85;1.10;;;19.70;51.30;;;;;;5055111;28;20060;-51
2023/10/12 14:08:35;;;;;;;4.75;1.50;;;19.50;51.80;;;;;;5056444;28;20048;-51
2023/10/12 14:11:06;;;;;;;4.77;1.53;;;19.40;52.40;;;;;;5055624;28;20119;-50
2023/10/12 14:13:32;;;;;;;7.80;2.42;;;18.90;57.20;;;;;;5055219;28;20037;-51
2023/10/12 14:15:58;;;;;;;7.32;1.65;;;18.60;58.80;;;;;;5056645;28;20029;-51
2023/10/12 14:18:27;;;;;;;7.00;1.80;;;19.20;58.40;;;;;;5056086;28;20036;-51
2023/10/12 14:20:54;;;;;;;7.80;1.40;;;18.70;62.00;;;;;;5056392;28;20021;-51
2023/10/12 14:23:20;;;;;;;3.97;1.38;;;18.20;64.10;;;;;;5056564;28;20082;-51
2023/10/12 14:25:47;;;;;;;7.38;3.08;;;17.70;67.40;;;;;;5055111;28;20037;-51
2023/10/12 14:28:19;;;;;;;10.85;2.20;;;17.70;71.60;;;;;;5056663;28;20342;-48
2023/10/12 14:30:50;;;;;;;4.95;1.77;;;18.10;68.20;;;;;;5056250;28;20055;-49
2023/10/12 14:33:16;;;;;;;4.72;1.30;;;18.00;69.20;;;;;;5055901;28;20068;-47
2023/10/12 14:35:42;;;;;;;6.78;1.50;;;18.20;66.90;;;;;;5056236;28;20032;-51
2023/10/12 14:38:12;;;;;;;5.07;1.73;;;18.00;63.50;;;;;;5054789;28;20108;-48
2023/10/12 14:40:40;;;;;;;;;;;18.00;66.00;;;;;;5056050;28;20139;-48
2023/10/12 14:43:06;;;;;;;7.65;1.83;;;18.00;68.10;;;;;;5055641;28;20241;-48
2023/10/12 14:45:38;;;;;;;7.18;1.90;;;18.30;66.10;;;;;;5055675;28;20064;-50
2023/10/12 14:48:10;;;;;;;5.47;1.35;;;18.60;65.40;;;;;;5055298;28;20135;-49
2023/10/12 14:50:45;;;;;;;8.00;1.58;;;18.80;59.70;;;;;;5055501;28;20094;-50
2023/10/12 14:53:15;;;;;;;10.32;1.92;;;18.60;62.30;;;;;;5055530;28;20025;-48
2023/10/12 14:55:48;;;;;;;6.40;1.30;;;18.20;64.90;;;;;;5055836;28;20381;-49
2023/10/12 14:58:17;;;;;;;4.30;1.23;;;18.00;68.10;;;;;;5055458;28;20374;-49
2023/10/12 15:00:46;;;;;;;5.17;1.60;;;17.90;69.10;;;;;;5055683;28;20025;-50
2023/10/12 15:03:15;;;;;;;5.40;1.65;;;17.80;68.40;;;;;;5055618;28;20060;-48
2023/10/12 15:05:44;;;;;;;5.37;2.20;;;17.60;69.90;;;;;;5054290;28;20588;-47
2023/10/12 15:08:10;;;;;;;5.55;1.58;;;17.70;70.00;;;;;;5054259;28;20270;-47